createdAt,value
2023-04-29T00:01:14.590Z,98.80
2023-04-29T00:03:41.826Z,98.50
2023-04-29T00:06:08.861Z,98.40
2023-04-29T00:08:36.231Z,98.50
2023-04-29T00:11:03.159Z,98.80
2023-04-29T00:13:29.964Z,99.30
2023-04-29T00:15:56.759Z,99.60
2023-04-29T00:18:24.181Z,99.40
2023-04-29T00:20:51.080Z,99.50
2023-04-29T00:23:17.803Z,99.20
2023-04-29T00:25:44.554Z,99.60
2023-04-29T00:28:11.313Z,99.90
2023-04-29T00:30:38.184Z,99.90
2023-04-29T00:33:05.144Z,99.90
2023-04-29T00:35:31.911Z,99.70
2023-04-29T00:37:58.712Z,99.80
2023-04-29T00:40:25.593Z,99.60
2023-04-29T00:42:52.339Z,99.90
2023-04-29T00:45:19.123Z,99.90
2023-04-29T00:47:46.019Z,99.90
2023-04-29T00:50:13.483Z,99.90
2023-04-29T00:52:40.358Z,99.90
2023-04-29T00:55:09.053Z,99.90
2023-04-29T00:57:35.990Z,99.90
2023-04-29T01:00:03.971Z,99.90
2023-04-29T01:02:31.363Z,99.90
2023-04-29T01:04:58.243Z,99.90
2023-04-29T01:07:32.259Z,99.90
2023-04-29T01:10:20.296Z,99.80
2023-04-29T01:13:06.041Z,99.80
2023-04-29T01:15:36.135Z,99.90
2023-04-29T01:18:26.603Z,99.90
2023-04-29T01:20:53.420Z,99.90
2023-04-29T01:23:20.207Z,99.90
2023-04-29T01:25:48.052Z,99.90
2023-04-29T01:28:35.791Z,99.90
2023-04-29T01:31:13.181Z,99.90
2023-04-29T01:34:10.685Z,99.90
2023-04-29T01:37:01.925Z,99.90
2023-04-29T01:39:57.974Z,99.90
2023-04-29T01:42:34.749Z,99.90
2023-04-29T01:45:01.978Z,99.90
2023-04-29T01:47:28.756Z,99.90
2023-04-29T01:49:55.628Z,99.90
2023-04-29T01:52:23.261Z,99.90
2023-04-29T01:54:50.032Z,99.90
2023-04-29T01:57:17.114Z,99.90
2023-04-29T01:59:43.930Z,99.90
2023-04-29T02:02:10.699Z,99.90
2023-04-29T02:04:37.488Z,99.90
2023-04-29T02:07:04.308Z,99.90
2023-04-29T02:09:31.178Z,99.90
2023-04-29T02:11:57.965Z,99.90
2023-04-29T02:14:24.682Z,99.90
2023-04-29T02:16:51.503Z,99.90
2023-04-29T02:19:18.425Z,99.90
2023-04-29T02:21:45.805Z,99.90
2023-04-29T02:24:12.600Z,99.90
2023-04-29T02:26:39.431Z,99.90
2023-04-29T02:29:06.253Z,99.90
2023-04-29T02:31:33.295Z,99.90
2023-04-29T02:34:00.608Z,99.90
2023-04-29T02:36:27.387Z,99.90
2023-04-29T02:38:55.969Z,99.90
2023-04-29T02:41:22.900Z,99.90
2023-04-29T02:43:49.678Z,99.90
2023-04-29T02:46:19.463Z,99.90
2023-04-29T02:48:46.387Z,99.90
2023-04-29T02:51:13.150Z,99.90
2023-04-29T02:53:40.118Z,99.90
2023-04-29T02:56:06.967Z,99.90
2023-04-29T02:58:33.707Z,99.90
2023-04-29T03:01:00.488Z,99.90
2023-04-29T03:03:27.402Z,99.90
2023-04-29T03:05:54.290Z,99.90
2023-04-29T03:08:21.047Z,99.90
2023-04-29T03:10:47.783Z,99.90
2023-04-29T03:13:14.537Z,99.90
2023-04-29T03:15:41.838Z,99.90
2023-04-29T03:18:09.797Z,99.70
2023-04-29T03:20:37.062Z,99.70
2023-04-29T03:23:03.998Z,99.50
2023-04-29T03:25:31.438Z,99.20
2023-04-29T03:27:58.212Z,99.00
2023-04-29T03:30:24.931Z,99.10
2023-04-29T03:32:51.833Z,99.20
2023-04-29T03:35:18.713Z,99.20
2023-04-29T03:37:45.751Z,99.10
2023-04-29T03:40:13.257Z,99.30
2023-04-29T03:42:40.103Z,99.80
2023-04-29T03:45:07.505Z,99.90
2023-04-29T03:47:34.421Z,99.90
2023-04-29T03:50:01.332Z,99.90
2023-04-29T03:52:28.399Z,99.90
2023-04-29T03:54:55.153Z,99.90
2023-04-29T03:57:21.917Z,99.90
2023-04-29T03:59:50.789Z,99.90
2023-04-29T04:02:18.155Z,99.90
2023-04-29T04:04:45.471Z,99.90
2023-04-29T04:07:12.433Z,99.90
2023-04-29T04:09:39.473Z,99.90
2023-04-29T04:12:07.006Z,99.90
2023-04-29T04:14:34.465Z,99.90
2023-04-29T04:17:01.520Z,99.90
2023-04-29T04:19:29.302Z,99.90
2023-04-29T04:21:56.293Z,99.90
2023-04-29T04:24:23.375Z,99.90
2023-04-29T04:26:50.252Z,99.90
2023-04-29T04:29:17.171Z,99.90
2023-04-29T04:31:46.754Z,99.90
2023-04-29T04:34:13.909Z,99.90
2023-04-29T04:36:41.388Z,99.90
2023-04-29T04:39:08.392Z,99.90
2023-04-29T04:41:35.677Z,99.90
2023-04-29T04:44:03.209Z,99.90
2023-04-29T04:46:30.054Z,99.90
2023-04-29T04:48:56.808Z,99.90
2023-04-29T04:51:23.577Z,99.90
2023-04-29T04:53:50.475Z,99.20
2023-04-29T04:56:17.295Z,98.20
2023-04-29T04:58:44.424Z,98.10
2023-04-29T05:01:11.478Z,97.80
2023-04-29T05:03:38.591Z,98.50
2023-04-29T05:06:05.707Z,99.50
2023-04-29T05:08:32.562Z,99.90
2023-04-29T05:10:59.367Z,99.90
2023-04-29T05:13:26.225Z,99.90
2023-04-29T05:15:53.103Z,99.90
2023-04-29T05:18:19.889Z,99.90
2023-04-29T05:20:46.703Z,99.90
2023-04-29T05:23:13.436Z,99.90
2023-04-29T05:25:40.423Z,99.90
2023-04-29T05:28:07.773Z,99.90
2023-04-29T05:30:35.093Z,99.90
2023-04-29T05:33:02.012Z,99.90
2023-04-29T05:35:28.917Z,98.60
2023-04-29T05:37:55.862Z,98.20
2023-04-29T05:40:23.327Z,98.20
2023-04-29T05:42:50.285Z,97.00
2023-04-29T05:45:17.219Z,96.10
2023-04-29T05:47:44.054Z,95.20
2023-04-29T05:50:11.633Z,93.20
2023-04-29T05:52:38.967Z,91.60
2023-04-29T05:55:06.043Z,90.10
2023-04-29T05:57:32.891Z,88.30
2023-04-29T06:00:00.355Z,85.30
2023-04-29T06:02:27.799Z,82.70
2023-04-29T06:04:54.990Z,83.50
2023-04-29T06:07:21.941Z,83.00
2023-04-29T06:09:48.698Z,83.40
2023-04-29T06:12:15.461Z,84.20
2023-04-29T06:14:42.427Z,83.10
2023-04-29T06:17:09.185Z,79.70
2023-04-29T06:19:36.144Z,77.10
2023-04-29T06:22:03.013Z,77.20
2023-04-29T06:24:29.800Z,78.80
2023-04-29T06:26:56.597Z,80.30
2023-04-29T06:29:23.589Z,82.10
2023-04-29T06:31:50.739Z,82.10
2023-04-29T06:34:17.704Z,80.40
2023-04-29T06:36:44.488Z,76.70
2023-04-29T06:39:11.343Z,73.90
2023-04-29T06:41:38.378Z,72.60
2023-04-29T06:44:05.360Z,72.50
2023-04-29T06:46:32.527Z,71.90
2023-04-29T06:48:59.293Z,70.30
2023-04-29T06:51:27.998Z,69.40
2023-04-29T06:53:54.821Z,69.70
2023-04-29T06:56:21.824Z,70.50
2023-04-29T06:58:48.696Z,72.20
2023-04-29T07:01:15.955Z,73.40
2023-04-29T07:03:43.905Z,73.80
2023-04-29T07:06:10.977Z,75.10
2023-04-29T07:08:37.769Z,74.20
2023-04-29T07:11:04.588Z,73.80
2023-04-29T07:13:31.664Z,74.30
2023-04-29T07:15:58.468Z,73.90
2023-04-29T07:18:25.311Z,72.60
2023-04-29T07:20:53.062Z,72.60
2023-04-29T07:23:19.920Z,71.00
2023-04-29T07:25:46.654Z,69.90
2023-04-29T07:28:13.425Z,68.80
2023-04-29T07:30:40.307Z,66.80
2023-04-29T07:33:07.181Z,66.30
2023-04-29T07:35:34.237Z,65.80
2023-04-29T07:38:01.210Z,64.80
2023-04-29T07:40:28.532Z,64.80
2023-04-29T07:42:55.322Z,63.20
2023-04-29T07:45:22.111Z,62.70
2023-04-29T07:47:48.976Z,61.50
2023-04-29T07:50:16.488Z,58.80
2023-04-29T07:52:43.307Z,58.00
2023-04-29T07:55:10.124Z,56.90
2023-04-29T07:57:37.098Z,54.90
2023-04-29T08:00:04.406Z,55.10
2023-04-29T08:02:31.453Z,53.20
2023-04-29T08:04:58.696Z,53.60
2023-04-29T08:07:26.048Z,50.80
2023-04-29T08:09:52.863Z,48.90
2023-04-29T08:12:19.715Z,47.80
2023-04-29T08:14:46.460Z,46.40
2023-04-29T08:17:13.232Z,44.00
2023-04-29T08:19:40.070Z,44.30
2023-04-29T08:22:07.011Z,43.10
2023-04-29T08:24:35.058Z,40.80
2023-04-29T08:27:01.851Z,40.30
2023-04-29T08:29:30.710Z,39.80
2023-04-29T08:31:57.640Z,39.30
2023-04-29T08:34:24.542Z,40.40
2023-04-29T08:36:51.287Z,40.00
2023-04-29T08:39:18.083Z,39.30
2023-04-29T08:41:49.392Z,39.30
2023-04-29T08:44:17.351Z,39.40
2023-04-29T08:46:46.452Z,39.80
2023-04-29T08:49:13.336Z,38.00
2023-04-29T08:51:40.243Z,38.50
2023-04-29T08:54:07.639Z,39.40
2023-04-29T08:56:34.575Z,39.20
2023-04-29T08:59:02.401Z,39.90
2023-04-29T09:01:29.531Z,38.00
2023-04-29T09:04:11.303Z,37.50
2023-04-29T09:06:38.458Z,37.50
2023-04-29T09:09:05.246Z,38.50
2023-04-29T09:11:32.005Z,39.40
2023-04-29T09:14:02.334Z,38.60
2023-04-29T09:16:29.561Z,39.10
2023-04-29T09:18:57.009Z,38.40
2023-04-29T09:21:24.458Z,36.30
2023-04-29T09:23:53.788Z,36.10
2023-04-29T09:26:21.174Z,35.60
2023-04-29T09:28:49.737Z,34.40
2023-04-29T09:31:26.934Z,36.10
2023-04-29T09:33:54.949Z,35.70
2023-04-29T09:36:47.626Z,36.20
2023-04-29T09:39:22.268Z,36.10
2023-04-29T09:41:54.989Z,36.60
2023-04-29T09:44:34.331Z,36.60
2023-04-29T09:47:08.016Z,35.00
2023-04-29T09:49:41.677Z,35.40
2023-04-29T09:52:16.658Z,37.20
2023-04-29T09:54:44.100Z,37.20
2023-04-29T09:57:11.941Z,35.80
2023-04-29T09:59:40.139Z,36.60
2023-04-29T10:02:18.101Z,36.90
2023-04-29T10:04:47.720Z,37.90
2023-04-29T10:07:16.347Z,37.90
2023-04-29T10:09:43.836Z,38.60
2023-04-29T10:12:11.150Z,39.20
2023-04-29T10:14:42.691Z,38.80
2023-04-29T10:17:13.124Z,38.90
2023-04-29T10:19:46.085Z,39.80
2023-04-29T10:22:16.713Z,40.10
2023-04-29T10:24:43.497Z,40.70
2023-04-29T10:27:12.756Z,40.80
2023-04-29T10:29:39.960Z,40.40
2023-04-29T10:32:07.890Z,41.00
2023-04-29T10:34:35.031Z,41.40
2023-04-29T10:37:01.817Z,41.60
2023-04-29T10:39:36.569Z,41.20
2023-04-29T10:42:04.023Z,40.50
2023-04-29T10:44:30.819Z,41.20
2023-04-29T10:47:19.317Z,40.90
2023-04-29T10:50:02.472Z,43.30
2023-04-29T10:52:29.278Z,42.50
2023-04-29T10:55:03.776Z,41.50
2023-04-29T10:57:30.592Z,41.10
2023-04-29T10:59:57.460Z,43.50
2023-04-29T11:02:24.336Z,43.10
2023-04-29T11:05:10.217Z,43.10
2023-04-29T11:07:37.065Z,41.40
2023-04-29T11:10:04.020Z,41.50
2023-04-29T11:12:30.964Z,41.20
2023-04-29T11:15:03.308Z,41.30
2023-04-29T11:17:36.422Z,41.70
2023-04-29T11:20:03.890Z,41.90
2023-04-29T11:22:32.097Z,41.60
2023-04-29T11:25:03.291Z,43.50
2023-04-29T11:27:33.965Z,44.30
2023-04-29T11:30:01.826Z,42.10
2023-04-29T11:32:29.749Z,41.10
2023-04-29T11:35:07.722Z,41.60
2023-04-29T11:37:34.460Z,42.00
2023-04-29T11:40:01.545Z,40.50
2023-04-29T11:42:28.646Z,41.20
2023-04-29T11:45:00.469Z,42.40
2023-04-29T11:47:28.733Z,44.50
2023-04-29T11:50:03.601Z,44.30
2023-04-29T11:52:30.818Z,44.60
2023-04-29T11:54:59.507Z,44.30
2023-04-29T11:57:26.848Z,44.90
2023-04-29T11:59:53.795Z,44.40
2023-04-29T12:02:24.012Z,44.60
2023-04-29T12:04:51.186Z,44.60
2023-04-29T12:07:18.551Z,42.90
2023-04-29T12:09:45.534Z,42.30
2023-04-29T12:12:13.474Z,43.00
2023-04-29T12:14:40.509Z,43.40
2023-04-29T12:17:07.377Z,44.60
2023-04-29T12:19:34.260Z,43.50
2023-04-29T12:22:02.789Z,43.70
2023-04-29T12:24:29.913Z,44.10
2023-04-29T12:26:59.137Z,43.00
2023-04-29T12:29:26.672Z,43.40
2023-04-29T12:31:53.704Z,44.20
2023-04-29T12:34:28.705Z,43.20
2023-04-29T12:36:57.733Z,44.10
2023-04-29T12:39:24.964Z,44.50
2023-04-29T12:41:55.377Z,44.30
2023-04-29T12:44:22.275Z,44.30
2023-04-29T12:46:49.148Z,44.30
2023-04-29T12:49:16.127Z,43.20
2023-04-29T12:51:42.951Z,44.00
2023-04-29T12:54:09.761Z,43.30
2023-04-29T12:56:37.887Z,43.10
2023-04-29T12:59:08.452Z,42.90
2023-04-29T13:01:35.838Z,42.60
2023-04-29T13:04:03.246Z,42.70
2023-04-29T13:06:30.130Z,42.70
2023-04-29T13:08:56.910Z,42.90
2023-04-29T13:11:23.787Z,43.00
2023-04-29T13:13:50.495Z,42.60
2023-04-29T13:16:17.485Z,43.30
2023-04-29T13:18:53.422Z,43.10
2023-04-29T13:21:25.676Z,42.30
2023-04-29T13:23:52.498Z,44.00
2023-04-29T13:26:19.356Z,43.70
2023-04-29T13:28:46.257Z,43.90
2023-04-29T13:31:13.192Z,43.70
2023-04-29T13:33:40.290Z,42.60
2023-04-29T13:36:07.723Z,42.60
2023-04-29T13:38:34.682Z,43.00
2023-04-29T13:41:01.542Z,45.00
2023-04-29T13:43:37.829Z,44.20
2023-04-29T13:46:07.866Z,44.50
2023-04-29T13:54:29.351Z,43.90
2023-04-29T14:02:14.689Z,44.00
2023-04-29T14:04:12.587Z,43.70
2023-04-29T14:06:39.770Z,43.30
2023-04-29T14:09:06.980Z,43.30
2023-04-29T14:11:36.787Z,43.20
2023-04-29T14:14:04.019Z,43.90
2023-04-29T14:16:30.835Z,43.70
2023-04-29T14:18:57.813Z,42.80
2023-04-29T14:21:24.688Z,42.80
2023-04-29T14:23:51.471Z,44.10
2023-04-29T14:26:28.010Z,44.50
2023-04-29T14:28:59.458Z,44.20
2023-04-29T14:31:28.224Z,44.70
2023-04-29T14:33:56.511Z,44.10
2023-04-29T14:36:23.433Z,45.60
2023-04-29T14:38:50.394Z,45.40
2023-04-29T14:41:17.294Z,45.20
2023-04-29T14:43:44.484Z,45.30
2023-04-29T14:46:11.601Z,45.30
2023-04-29T14:48:38.479Z,45.20
2023-04-29T14:51:06.298Z,45.30
2023-04-29T14:53:33.730Z,45.80
2023-04-29T14:56:00.927Z,45.80
2023-04-29T14:58:27.759Z,45.80
2023-04-29T15:00:54.549Z,45.10
2023-04-29T15:03:23.208Z,45.10
2023-04-29T15:05:51.424Z,45.20
2023-04-29T15:08:19.115Z,46.50
2023-04-29T15:10:47.567Z,46.40
2023-04-29T15:13:14.569Z,46.80
2023-04-29T15:15:41.547Z,46.70
2023-04-29T15:18:08.957Z,46.80
2023-04-29T15:20:36.672Z,46.90
2023-04-29T15:23:04.130Z,46.00
2023-04-29T15:25:33.520Z,46.30
2023-04-29T15:28:00.822Z,47.50
2023-04-29T15:30:27.746Z,48.30
2023-04-29T15:32:57.666Z,47.90
2023-04-29T15:35:24.527Z,47.50
2023-04-29T15:37:51.409Z,47.60
2023-04-29T15:40:18.315Z,47.30
2023-04-29T15:42:45.084Z,46.90
2023-04-29T15:45:12.197Z,47.90
2023-04-29T15:47:39.718Z,48.40
2023-04-29T15:50:07.566Z,48.40
2023-04-29T15:52:34.483Z,48.70
2023-04-29T15:55:01.214Z,48.50
2023-04-29T15:57:28.017Z,48.70
2023-04-29T15:59:55.001Z,48.90
2023-04-29T16:02:22.414Z,48.90
2023-04-29T16:04:49.215Z,49.20
2023-04-29T16:07:16.163Z,49.40
2023-04-29T16:09:42.959Z,49.60
2023-04-29T16:12:11.597Z,49.60
2023-04-29T16:14:38.491Z,49.40
2023-04-29T16:17:05.977Z,50.10
2023-04-29T16:19:35.194Z,50.00
2023-04-29T16:22:03.464Z,50.50
2023-04-29T16:24:30.256Z,50.20
2023-04-29T16:26:57.345Z,50.40
2023-04-29T16:29:24.358Z,50.30
2023-04-29T16:31:51.374Z,50.30
2023-04-29T16:34:18.210Z,50.60
2023-04-29T16:36:45.116Z,50.40
2023-04-29T16:39:11.910Z,51.00
2023-04-29T16:41:38.693Z,50.90
2023-04-29T16:44:05.611Z,51.50
2023-04-29T16:46:32.717Z,51.20
2023-04-29T16:48:59.601Z,51.30
2023-04-29T16:51:26.726Z,51.70
2023-04-29T16:53:53.664Z,51.80
2023-04-29T16:56:21.729Z,52.00
2023-04-29T16:58:48.834Z,52.10
2023-04-29T17:01:15.983Z,52.00
2023-04-29T17:03:42.878Z,52.40
2023-04-29T17:06:09.792Z,53.10
2023-04-29T17:08:36.739Z,52.80
2023-04-29T17:11:03.549Z,52.40
2023-04-29T17:13:30.434Z,53.00
2023-04-29T17:15:57.316Z,52.10
2023-04-29T17:18:24.168Z,52.30
2023-04-29T17:20:51.258Z,52.00
2023-04-29T17:23:18.369Z,51.90
2023-04-29T17:25:45.321Z,51.80
2023-04-29T17:28:12.145Z,52.00
2023-04-29T17:30:38.963Z,52.20
2023-04-29T17:33:06.094Z,53.00
2023-04-29T17:35:33.633Z,52.80
2023-04-29T17:38:00.656Z,53.10
2023-04-29T17:40:27.628Z,53.50
2023-04-29T17:42:54.493Z,53.70
2023-04-29T17:45:21.283Z,53.90
2023-04-29T17:47:48.474Z,54.20
2023-04-29T17:50:15.473Z,55.00
2023-04-29T17:52:42.820Z,56.00
2023-04-29T17:55:10.550Z,56.90
2023-04-29T17:57:38.239Z,57.60
2023-04-29T18:00:08.505Z,58.30
2023-04-29T18:02:35.442Z,59.20
2023-04-29T18:05:03.445Z,60.00
2023-04-29T18:07:30.439Z,60.70
2023-04-29T18:09:57.721Z,61.00
2023-04-29T18:12:25.140Z,61.80
2023-04-29T18:14:52.311Z,62.60
2023-04-29T18:17:19.689Z,63.20
2023-04-29T18:19:48.547Z,63.50
2023-04-29T18:22:16.048Z,63.90
2023-04-29T18:24:42.908Z,64.60
2023-04-29T18:27:09.716Z,65.00
2023-04-29T18:29:36.469Z,65.50
2023-04-29T18:32:05.730Z,65.80
2023-04-29T18:34:34.166Z,66.40
2023-04-29T18:37:01.725Z,66.70
2023-04-29T18:39:28.584Z,67.00
2023-04-29T18:41:56.136Z,67.30
2023-04-29T18:44:23.026Z,67.30
2023-04-29T18:46:49.866Z,67.70
2023-04-29T18:49:17.949Z,68.10
2023-04-29T18:51:48.168Z,68.80
2023-04-29T18:54:15.991Z,69.40
2023-04-29T18:56:46.891Z,69.90
2023-04-29T18:59:19.038Z,70.00
2023-04-29T19:01:46.564Z,70.70
2023-04-29T19:04:13.645Z,70.90
2023-04-29T19:06:40.651Z,71.30
2023-04-29T19:09:07.577Z,71.90
2023-04-29T19:11:34.372Z,72.20
2023-04-29T19:14:01.345Z,72.60
2023-04-29T19:16:28.294Z,72.80
2023-04-29T19:18:55.115Z,73.40
2023-04-29T19:21:21.897Z,73.90
2023-04-29T19:23:48.661Z,74.30
2023-04-29T19:26:15.898Z,74.60
2023-04-29T19:28:42.745Z,74.70
2023-04-29T19:31:10.784Z,74.90
2023-04-29T19:33:37.608Z,75.20
2023-04-29T19:36:04.557Z,75.70
2023-04-29T19:38:31.332Z,76.10
2023-04-29T19:40:58.144Z,76.40
2023-04-29T19:43:25.019Z,76.60
2023-04-29T19:45:51.808Z,77.00
2023-04-29T19:48:18.715Z,77.10
2023-04-29T19:50:45.525Z,77.20
2023-04-29T19:53:12.547Z,77.10
2023-04-29T19:55:39.908Z,78.00
2023-04-29T19:58:07.226Z,78.30
2023-04-29T20:00:34.346Z,78.10
2023-04-29T20:03:01.389Z,78.50
2023-04-29T20:05:28.930Z,78.70
2023-04-29T20:07:55.928Z,80.00
2023-04-29T20:10:22.872Z,80.20
2023-04-29T20:12:49.822Z,81.00
2023-04-29T20:15:16.780Z,81.70
2023-04-29T20:17:43.765Z,82.30
2023-04-29T20:20:11.072Z,82.90
2023-04-29T20:22:38.454Z,83.40
2023-04-29T20:25:05.615Z,83.70
2023-04-29T20:27:32.429Z,83.80
2023-04-29T20:29:59.188Z,83.70
2023-04-29T20:32:26.372Z,84.10
2023-04-29T20:34:54.112Z,84.50
2023-04-29T20:37:21.139Z,85.40
2023-04-29T20:39:47.999Z,86.40
2023-04-29T20:42:14.827Z,87.40
2023-04-29T20:44:41.625Z,88.60
2023-04-29T20:47:08.666Z,89.50
2023-04-29T20:49:35.466Z,89.90
2023-04-29T20:52:02.203Z,90.50
2023-04-29T20:54:29.257Z,90.80
2023-04-29T20:56:56.117Z,91.40
2023-04-29T20:59:23.086Z,92.10
2023-04-29T21:01:49.885Z,92.70
2023-04-29T21:04:17.087Z,93.20
2023-04-29T21:06:43.951Z,93.70
2023-04-29T21:09:11.132Z,94.10
2023-04-29T21:11:37.911Z,94.50
2023-04-29T21:14:04.792Z,95.30
2023-04-29T21:16:31.657Z,95.70
2023-04-29T21:18:58.477Z,96.20
2023-04-29T21:21:25.239Z,96.30
2023-04-29T21:23:52.118Z,96.40
2023-04-29T21:26:18.885Z,96.70
2023-04-29T21:28:46.019Z,97.10
2023-04-29T21:31:16.407Z,97.70
2023-04-29T21:33:46.383Z,98.10
2023-04-29T21:36:13.750Z,98.60
2023-04-29T21:38:42.966Z,98.90
2023-04-29T21:41:29.292Z,99.00
2023-04-29T21:43:57.632Z,99.10
2023-04-29T21:46:25.525Z,99.00
2023-04-29T21:48:52.335Z,99.30
2023-04-29T21:51:19.670Z,99.30
2023-04-29T21:53:46.489Z,99.50
2023-04-29T21:56:13.288Z,99.50
2023-04-29T21:58:41.471Z,99.90
2023-04-29T22:01:37.912Z,99.80
2023-04-29T22:04:04.831Z,99.90
2023-04-29T22:06:31.750Z,99.90
2023-04-29T22:08:58.544Z,99.90
2023-04-29T22:11:25.574Z,99.90
2023-04-29T22:13:52.445Z,99.90
2023-04-29T22:16:19.286Z,99.90
2023-04-29T22:18:46.401Z,99.90
2023-04-29T22:21:13.277Z,99.90
2023-04-29T22:23:40.093Z,99.90
2023-04-29T22:26:07.343Z,99.90
2023-04-29T22:28:34.265Z,99.90
2023-04-29T22:31:01.134Z,99.90
2023-04-29T22:33:28.130Z,99.90
2023-04-29T22:35:54.874Z,99.90
2023-04-29T22:38:21.648Z,99.90
2023-04-29T22:40:51.737Z,99.90
2023-04-29T22:43:18.712Z,99.90
2023-04-29T22:45:54.760Z,99.90
2023-04-29T22:48:21.833Z,99.90
2023-04-29T22:50:55.783Z,99.90
2023-04-29T22:53:22.813Z,99.90
2023-04-29T22:55:53.863Z,99.90
2023-04-29T22:58:20.956Z,99.90
2023-04-29T23:00:51.526Z,99.90
2023-04-29T23:03:18.562Z,99.90
2023-04-29T23:05:45.916Z,99.90
2023-04-29T23:08:12.732Z,99.90
2023-04-29T23:10:39.526Z,99.90
2023-04-29T23:13:06.349Z,99.90
2023-04-29T23:15:33.226Z,99.90
2023-04-29T23:18:00.207Z,99.90
2023-04-29T23:20:27.018Z,99.90
2023-04-29T23:22:53.787Z,99.90
2023-04-29T23:25:20.518Z,99.90
2023-04-29T23:27:47.358Z,99.90
2023-04-29T23:30:14.251Z,99.90
2023-04-29T23:32:41.258Z,99.90
2023-04-29T23:35:08.526Z,99.90
2023-04-29T23:37:35.417Z,99.90
2023-04-29T23:40:02.222Z,99.60
2023-04-29T23:42:29.037Z,99.30
2023-04-29T23:44:56.382Z,99.20
2023-04-29T23:47:23.274Z,98.50
2023-04-29T23:49:50.122Z,98.70
2023-04-29T23:52:16.945Z,98.90
2023-04-29T23:54:43.728Z,99.00
2023-04-29T23:57:10.683Z,98.90
2023-04-29T23:59:37.514Z,98.80
